createdAt,value
2023-02-11T00:00:41.576Z,31.15
2023-02-11T00:02:46.135Z,35.63
2023-02-11T00:04:49.206Z,34.17
2023-02-11T00:06:50.615Z,33.80
2023-02-11T00:08:52.177Z,36.20
2023-02-11T00:10:55.333Z,32.20
2023-02-11T00:12:56.759Z,34.92
2023-02-11T00:14:58.149Z,33.35
2023-02-11T00:16:59.646Z,38.97
2023-02-11T00:19:02.369Z,33.28
2023-02-11T00:21:18.068Z,38.85
2023-02-11T00:23:19.467Z,31.58
2023-02-11T00:25:20.953Z,34.90
2023-02-11T00:27:22.437Z,32.78
2023-02-11T00:29:23.928Z,36.17
2023-02-11T00:31:25.884Z,35.05
2023-02-11T00:33:27.368Z,30.23
2023-02-11T00:35:28.970Z,32.47
2023-02-11T00:37:30.364Z,35.17
2023-02-11T00:39:31.926Z,31.95
2023-02-11T00:41:33.769Z,34.17
2023-02-11T00:43:35.834Z,34.78
2023-02-11T00:45:37.274Z,30.17
2023-02-11T00:47:38.687Z,35.95
2023-02-11T00:49:40.387Z,33.78
2023-02-11T00:51:42.049Z,31.73
2023-02-11T00:53:43.536Z,37.78
2023-02-11T00:55:44.931Z,31.42
2023-02-11T00:57:46.385Z,27.80
2023-02-11T00:59:47.830Z,33.75
2023-02-11T01:01:49.290Z,29.75
2023-02-11T01:03:51.058Z,34.28
2023-02-11T01:05:53.027Z,31.73
2023-02-11T01:07:54.512Z,29.48
2023-02-11T01:09:56.279Z,31.20
2023-02-11T01:11:57.670Z,32.47
2023-02-11T01:13:59.113Z,36.03
2023-02-11T01:16:01.011Z,31.35
2023-02-11T01:18:02.432Z,29.98
2023-02-11T01:20:07.966Z,30.33
2023-02-11T01:22:09.463Z,30.77
2023-02-11T01:24:10.831Z,30.98
2023-02-11T01:26:12.463Z,32.60
2023-02-11T01:28:23.367Z,35.70
2023-02-11T01:30:24.793Z,35.67
2023-02-11T01:32:26.271Z,29.20
2023-02-11T01:34:28.417Z,28.45
2023-02-11T01:36:29.847Z,30.95
2023-02-11T01:38:32.364Z,27.75
2023-02-11T01:40:34.289Z,32.05
2023-02-11T01:42:35.770Z,31.48
2023-02-11T01:44:40.010Z,33.08
2023-02-11T01:46:41.535Z,29.35
2023-02-11T01:48:50.651Z,28.23
2023-02-11T01:50:58.840Z,32.08
2023-02-11T01:53:20.711Z,31.63
2023-02-11T01:55:41.129Z,33.15
2023-02-11T01:57:47.271Z,30.95
2023-02-11T01:59:51.649Z,27.48
2023-02-11T02:01:58.463Z,26.85
2023-02-11T02:04:03.159Z,32.13
2023-02-11T02:06:10.903Z,28.02
2023-02-11T02:08:40.836Z,30.83
2023-02-11T02:10:46.134Z,31.50
2023-02-11T02:12:47.662Z,33.67
2023-02-11T02:14:49.065Z,29.67
2023-02-11T02:16:50.532Z,28.50
2023-02-11T02:19:39.456Z,31.20
2023-02-11T02:21:59.365Z,28.08
2023-02-11T02:24:15.927Z,30.33
2023-02-11T02:27:02.006Z,31.70
2023-02-11T02:29:23.262Z,32.47
2023-02-11T02:31:50.798Z,32.20
2023-02-11T02:34:11.388Z,31.90
2023-02-11T02:36:22.424Z,35.55
2023-02-11T02:38:30.370Z,32.88
2023-02-11T02:40:54.514Z,31.75
2023-02-11T02:42:57.731Z,31.65
2023-02-11T02:44:59.225Z,33.83
2023-02-11T02:47:00.685Z,35.00
2023-02-11T02:49:06.189Z,35.53
2023-02-11T02:51:57.845Z,31.00
2023-02-11T02:54:23.422Z,42.53
2023-02-11T02:56:28.884Z,33.33
2023-02-11T02:58:47.479Z,32.03
2023-02-11T03:01:21.396Z,37.92
2023-02-11T03:03:48.549Z,34.47
2023-02-11T03:06:00.036Z,29.20
2023-02-11T03:08:13.805Z,31.38
2023-02-11T03:10:18.883Z,35.38
2023-02-11T03:12:22.132Z,32.97
2023-02-11T03:14:26.754Z,28.55
2023-02-11T03:16:30.097Z,30.60
2023-02-11T03:18:35.218Z,30.90
2023-02-11T03:20:41.864Z,33.10
2023-02-11T03:22:55.604Z,36.33
2023-02-11T03:24:57.158Z,34.25
2023-02-11T03:27:04.693Z,33.63
2023-02-11T03:29:33.314Z,33.13
2023-02-11T03:31:47.640Z,34.72
2023-02-11T03:34:08.741Z,35.13
2023-02-11T03:36:15.795Z,29.50
2023-02-11T03:40:32.499Z,31.35
2023-02-11T03:42:47.953Z,31.25
2023-02-11T03:44:55.030Z,31.25
2023-02-11T03:49:04.974Z,33.83
2023-02-11T03:51:09.485Z,29.58
2023-02-11T03:53:13.008Z,32.72
2023-02-11T03:55:18.365Z,30.25
2023-02-11T03:57:19.823Z,38.40
2023-02-11T03:59:21.426Z,38.72
2023-02-11T04:01:22.954Z,31.38
2023-02-11T04:03:24.394Z,33.25
2023-02-11T04:05:25.894Z,32.22
2023-02-11T04:07:27.543Z,34.47
2023-02-11T04:09:28.887Z,36.58
2023-02-11T04:11:30.319Z,36.55
2023-02-11T04:13:31.756Z,28.10
2023-02-11T04:15:33.280Z,34.05
2023-02-11T04:17:34.840Z,30.00
2023-02-11T04:19:36.357Z,35.10
2023-02-11T04:21:37.743Z,32.33
2023-02-11T04:23:39.126Z,39.90
2023-02-11T04:25:40.515Z,41.70
2023-02-11T04:27:41.985Z,32.65
2023-02-11T04:29:43.372Z,31.40
2023-02-11T04:31:45.020Z,31.63
2023-02-11T04:33:46.436Z,35.97
2023-02-11T04:35:48.326Z,32.58
2023-02-11T04:37:49.847Z,32.97
2023-02-11T04:39:51.259Z,38.05
2023-02-11T04:41:52.609Z,34.05
2023-02-11T04:43:54.009Z,36.08
2023-02-11T04:45:58.855Z,30.50
2023-02-11T04:48:02.757Z,35.15
2023-02-11T04:50:04.885Z,33.53
2023-02-11T04:52:06.318Z,36.53
2023-02-11T04:54:08.481Z,30.48
2023-02-11T04:56:09.885Z,32.10
2023-02-11T04:58:11.221Z,36.45
2023-02-11T05:00:13.435Z,35.60
2023-02-11T05:02:14.850Z,35.55
2023-02-11T05:04:17.212Z,33.58
2023-02-11T05:06:18.764Z,35.92
2023-02-11T05:08:20.117Z,34.83
2023-02-11T05:10:21.601Z,35.17
2023-02-11T05:12:23.085Z,34.45
2023-02-11T05:14:24.468Z,32.85
2023-02-11T05:16:25.985Z,33.28
2023-02-11T05:18:27.401Z,37.85
2023-02-11T05:20:28.841Z,34.10
2023-02-11T05:22:30.387Z,32.72
2023-02-11T05:24:32.446Z,36.45
2023-02-11T05:26:33.887Z,40.78
2023-02-11T05:28:36.130Z,34.38
2023-02-11T05:30:37.587Z,35.50
2023-02-11T05:35:05.572Z,40.03
2023-02-11T05:37:06.989Z,35.88
2023-02-11T05:39:08.465Z,32.88
2023-02-11T05:41:10.855Z,35.08
2023-02-11T05:43:12.229Z,33.25
2023-02-11T05:45:13.645Z,37.00
2023-02-11T05:47:15.024Z,33.72
2023-02-11T05:49:17.454Z,33.80
2023-02-11T05:51:18.908Z,31.08
2023-02-11T05:53:20.348Z,33.97
2023-02-11T05:55:21.740Z,32.13
2023-02-11T05:57:23.262Z,35.90
2023-02-11T05:59:24.717Z,36.63
2023-02-11T06:01:26.574Z,31.02
2023-02-11T06:03:28.177Z,33.00
2023-02-11T06:05:29.680Z,36.90
2023-02-11T06:07:31.086Z,34.75
2023-02-11T06:09:32.451Z,39.55
2023-02-11T06:11:33.847Z,36.95
2023-02-11T06:13:36.176Z,34.72
2023-02-11T06:15:37.644Z,35.33
2023-02-11T06:17:39.107Z,40.38
2023-02-11T06:19:40.533Z,36.25
2023-02-11T06:21:44.289Z,37.60
2023-02-11T06:23:46.002Z,35.28
2023-02-11T06:25:47.410Z,34.10
2023-02-11T06:27:48.813Z,32.75
2023-02-11T06:29:52.330Z,38.70
2023-02-11T06:31:53.774Z,36.15
2023-02-11T06:33:55.236Z,35.55
2023-02-11T06:35:56.599Z,36.47
2023-02-11T06:37:57.992Z,32.45
2023-02-11T06:39:59.382Z,41.17
2023-02-11T06:42:00.739Z,41.40
2023-02-11T06:44:02.110Z,33.92
2023-02-11T06:46:03.626Z,39.53
2023-02-11T06:48:05.129Z,38.20
2023-02-11T06:50:08.308Z,38.15
2023-02-11T06:52:09.697Z,42.30
2023-02-11T06:54:12.489Z,41.28
2023-02-11T06:56:17.272Z,40.83
2023-02-11T06:58:18.623Z,37.88
2023-02-11T07:00:20.042Z,41.22
2023-02-11T07:02:21.559Z,45.97
2023-02-11T07:04:23.055Z,43.30
2023-02-11T07:06:27.898Z,38.45
2023-02-11T07:08:29.456Z,39.75
2023-02-11T07:10:30.856Z,42.03
2023-02-11T07:12:32.592Z,43.30
2023-02-11T07:14:34.015Z,40.63
2023-02-11T07:16:35.511Z,42.95
2023-02-11T07:18:37.179Z,36.13
2023-02-11T07:20:38.929Z,42.20
2023-02-11T07:22:40.296Z,43.33
2023-02-11T07:24:41.720Z,42.05
2023-02-11T07:26:43.158Z,40.88
2023-02-11T07:28:45.079Z,42.28
2023-02-11T07:30:46.517Z,40.40
2023-02-11T07:32:48.848Z,41.50
2023-02-11T07:34:50.222Z,46.13
2023-02-11T07:36:51.698Z,43.55
2023-02-11T07:38:53.093Z,39.78
2023-02-11T07:40:54.490Z,44.80
2023-02-11T07:42:55.844Z,46.10
2023-02-11T07:44:57.273Z,45.33
2023-02-11T07:46:59.513Z,45.42
2023-02-11T07:49:01.147Z,45.70
2023-02-11T07:51:10.052Z,42.00
2023-02-11T07:53:11.442Z,43.47
2023-02-11T07:55:12.878Z,43.38
2023-02-11T07:57:14.228Z,42.05
2023-02-11T07:59:16.038Z,47.85
2023-02-11T08:01:26.371Z,45.58
2023-02-11T08:03:27.910Z,51.50
2023-02-11T08:05:30.323Z,47.92
2023-02-11T08:07:32.259Z,48.95
2023-02-11T08:09:34.627Z,50.92
2023-02-11T08:11:36.360Z,50.08
2023-02-11T08:13:38.546Z,54.50
2023-02-11T08:15:39.935Z,48.78
2023-02-11T08:17:41.327Z,43.20
2023-02-11T08:19:42.968Z,48.35
2023-02-11T08:21:44.880Z,54.47
2023-02-11T08:23:46.976Z,57.00
2023-02-11T08:25:48.368Z,48.28
2023-02-11T08:27:49.845Z,50.75
2023-02-11T08:29:51.351Z,56.15
2023-02-11T08:31:52.843Z,56.63
2023-02-11T08:36:25.846Z,47.63
2023-02-11T08:38:27.295Z,52.17
2023-02-11T08:40:28.730Z,48.75
2023-02-11T08:42:30.247Z,53.60
2023-02-11T08:44:31.637Z,54.03
2023-02-11T08:46:33.205Z,61.35
2023-02-11T08:48:34.981Z,54.10
2023-02-11T08:50:39.099Z,52.75
2023-02-11T08:52:40.567Z,63.40
2023-02-11T08:54:41.928Z,54.72
2023-02-11T08:56:43.785Z,54.80
2023-02-11T08:58:45.920Z,55.20
2023-02-11T09:00:48.447Z,56.42
2023-02-11T09:02:50.121Z,60.00
2023-02-11T09:04:51.500Z,60.40
2023-02-11T09:06:52.886Z,61.30
2023-02-11T09:08:57.190Z,51.92
2023-02-11T09:10:58.773Z,59.33
2023-02-11T09:13:00.163Z,63.55
2023-02-11T09:15:01.794Z,57.00
2023-02-11T09:17:03.207Z,58.65
2023-02-11T09:19:05.336Z,64.97
2023-02-11T09:21:08.803Z,61.15
2023-02-11T09:23:11.113Z,56.03
2023-02-11T09:25:12.526Z,57.67
2023-02-11T09:27:15.809Z,55.47
2023-02-11T09:29:17.195Z,62.58
2023-02-11T09:31:21.959Z,58.50
2023-02-11T09:33:23.501Z,57.05
2023-02-11T09:35:24.936Z,59.90
2023-02-11T09:37:26.416Z,59.88
2023-02-11T09:39:29.184Z,60.22
2023-02-11T09:41:42.534Z,51.22
2023-02-11T09:45:50.171Z,58.63
2023-02-11T09:47:58.534Z,64.72
2023-02-11T09:50:15.693Z,57.75
2023-02-11T09:52:26.138Z,55.08
2023-02-11T09:54:41.223Z,58.28
2023-02-11T09:56:42.626Z,54.75
2023-02-11T09:58:45.060Z,62.00
2023-02-11T10:01:11.069Z,63.50
2023-02-11T10:03:21.475Z,57.22
2023-02-11T10:05:44.529Z,63.05
2023-02-11T10:08:30.536Z,59.88
2023-02-11T10:10:57.130Z,62.20
2023-02-11T10:13:19.800Z,59.78
2023-02-11T10:15:49.809Z,62.58
2023-02-11T10:18:19.321Z,60.53
2023-02-11T10:20:29.605Z,62.67
2023-02-11T10:22:39.331Z,63.67
2023-02-11T10:24:48.447Z,63.35
2023-02-11T10:26:51.888Z,60.47
2023-02-11T10:28:55.896Z,53.70
2023-02-11T10:31:00.519Z,61.75
2023-02-11T10:33:31.355Z,64.15
2023-02-11T10:35:33.098Z,62.47
2023-02-11T10:37:34.472Z,54.85
2023-02-11T10:39:35.840Z,63.58
2023-02-11T10:41:47.489Z,59.25
2023-02-11T10:43:50.395Z,55.25
2023-02-11T10:45:53.553Z,59.70
2023-02-11T10:47:55.352Z,57.03
2023-02-11T10:50:03.230Z,65.85
2023-02-11T10:52:23.678Z,55.97
2023-02-11T10:54:25.045Z,59.78
2023-02-11T10:56:28.234Z,56.03
2023-02-11T10:58:32.567Z,57.83
2023-02-11T11:00:40.512Z,59.33
2023-02-11T11:02:44.448Z,62.10
2023-02-11T11:04:47.452Z,60.35
2023-02-11T11:06:49.016Z,62.95
2023-02-11T11:08:51.781Z,61.10
2023-02-11T11:11:05.586Z,58.92
2023-02-11T11:13:22.943Z,60.67
2023-02-11T11:15:29.575Z,64.63
2023-02-11T11:17:31.097Z,58.78
2023-02-11T11:19:33.107Z,60.42
2023-02-11T11:21:36.566Z,58.30
2023-02-11T11:23:39.726Z,64.03
2023-02-11T11:25:45.879Z,55.60
2023-02-11T11:27:52.925Z,63.33
2023-02-11T11:32:01.288Z,60.63
2023-02-11T11:34:28.455Z,59.05
2023-02-11T11:36:37.560Z,54.50
2023-02-11T11:38:48.988Z,61.75
2023-02-11T11:41:20.781Z,59.70
2023-02-11T11:43:23.454Z,54.50
2023-02-11T11:45:26.861Z,63.92
2023-02-11T11:47:44.068Z,62.83
2023-02-11T11:49:51.493Z,67.90
2023-02-11T11:52:11.801Z,61.55
2023-02-11T11:54:17.555Z,64.03
2023-02-11T11:56:25.080Z,71.20
2023-02-11T11:58:28.954Z,58.28
2023-02-11T12:00:51.182Z,67.40
2023-02-11T12:03:31.708Z,65.65
2023-02-11T12:05:45.312Z,64.85
2023-02-11T12:08:11.194Z,65.38
2023-02-11T12:10:40.045Z,72.32
2023-02-11T12:12:52.877Z,62.47
2023-02-11T12:15:19.046Z,69.22
2023-02-11T12:17:41.612Z,62.03
2023-02-11T12:20:18.634Z,69.78
2023-02-11T12:22:45.052Z,67.45
2023-02-11T12:25:06.207Z,67.45
2023-02-11T12:27:16.715Z,59.33
2023-02-11T12:29:55.374Z,63.35
2023-02-11T12:32:21.310Z,65.15
2023-02-11T12:36:41.934Z,68.10
2023-02-11T12:39:10.305Z,71.10
2023-02-11T12:41:14.650Z,59.55
2023-02-11T12:43:22.180Z,68.25
2023-02-11T12:45:41.957Z,69.57
2023-02-11T12:48:22.648Z,65.55
2023-02-11T12:50:34.202Z,73.40
2023-02-11T12:52:47.168Z,68.00
2023-02-11T12:54:58.080Z,72.07
2023-02-11T12:57:21.567Z,84.63
2023-02-11T13:00:04.987Z,73.68
2023-02-11T13:02:18.282Z,69.53
2023-02-11T13:04:28.799Z,71.32
2023-02-11T13:06:38.662Z,66.20
2023-02-11T13:08:53.952Z,72.45
2023-02-11T13:11:02.455Z,67.95
2023-02-11T13:13:18.418Z,69.50
2023-02-11T13:15:19.844Z,75.00
2023-02-11T13:17:41.318Z,71.40
2023-02-11T13:19:58.111Z,69.57
2023-02-11T13:22:33.555Z,72.30
2023-02-11T13:24:55.762Z,73.47
2023-02-11T13:27:20.518Z,88.38
2023-02-11T13:30:01.209Z,74.70
2023-02-11T13:32:11.621Z,78.40
2023-02-11T13:34:51.730Z,71.97
2023-02-11T13:36:57.599Z,79.45
2023-02-11T13:39:02.415Z,76.30
2023-02-11T13:41:19.349Z,75.50
2023-02-11T13:43:23.543Z,78.00
2023-02-11T13:45:28.934Z,77.20
2023-02-11T13:47:33.475Z,79.78
2023-02-11T13:49:41.487Z,81.43
2023-02-11T13:51:43.216Z,83.40
2023-02-11T13:53:51.438Z,72.10
2023-02-11T13:56:06.202Z,77.75
2023-02-11T13:58:07.508Z,73.70
2023-02-11T14:00:26.933Z,84.10
2023-02-11T14:02:52.858Z,75.97
2023-02-11T14:05:29.794Z,82.15
2023-02-11T14:08:11.305Z,80.13
2023-02-11T14:10:43.628Z,80.25
2023-02-11T14:13:05.386Z,74.53
2023-02-11T14:15:12.794Z,85.88
2023-02-11T14:17:18.857Z,77.80
2023-02-11T14:19:43.529Z,78.30
2023-02-11T14:21:46.695Z,76.65
2023-02-11T14:23:48.815Z,79.50
2023-02-11T14:26:38.018Z,84.57
2023-02-11T14:28:44.689Z,82.57
2023-02-11T14:30:56.486Z,87.60
2023-02-11T14:33:23.699Z,78.90
2023-02-11T14:35:28.065Z,82.32
2023-02-11T14:37:52.165Z,79.65
2023-02-11T14:40:30.468Z,78.70
2023-02-11T14:42:31.947Z,78.15
2023-02-11T14:44:34.829Z,72.40
2023-02-11T14:46:36.560Z,81.63
2023-02-11T14:48:43.107Z,76.13
2023-02-11T14:50:48.312Z,79.38
2023-02-11T14:52:51.063Z,79.35
2023-02-11T14:55:09.070Z,75.22
2023-02-11T14:57:15.867Z,79.78
2023-02-11T14:59:19.969Z,77.90
2023-02-11T15:01:28.521Z,74.15
2023-02-11T15:03:33.164Z,72.35
2023-02-11T15:05:34.791Z,76.20
2023-02-11T15:07:36.179Z,79.30
2023-02-11T15:09:41.715Z,80.80
2023-02-11T15:11:46.668Z,79.55
2023-02-11T15:13:50.301Z,76.63
2023-02-11T15:15:55.677Z,74.95
2023-02-11T15:18:01.249Z,80.43
2023-02-11T15:20:03.190Z,77.28
2023-02-11T15:22:10.519Z,77.72
2023-02-11T15:24:31.258Z,70.20
2023-02-11T15:26:33.080Z,67.88
2023-02-11T15:28:35.514Z,70.57
2023-02-11T15:30:36.906Z,76.90
2023-02-11T15:32:45.065Z,74.93
2023-02-11T15:34:47.563Z,72.15
2023-02-11T15:36:48.972Z,78.10
2023-02-11T15:39:17.984Z,69.80
2023-02-11T15:41:37.947Z,72.82
2023-02-11T15:43:51.000Z,69.10
2023-02-11T15:45:52.331Z,66.63
2023-02-11T15:47:58.079Z,64.43
2023-02-11T15:49:59.822Z,68.13
2023-02-11T15:52:02.713Z,68.65
2023-02-11T15:54:15.140Z,67.80
2023-02-11T15:56:19.235Z,69.85
2023-02-11T15:58:22.696Z,68.05
2023-02-11T16:00:31.501Z,73.18
2023-02-11T16:02:36.419Z,70.85
2023-02-11T16:04:38.044Z,68.20
2023-02-11T16:06:42.255Z,69.45
2023-02-11T16:08:59.797Z,66.38
2023-02-11T16:11:08.496Z,74.20
2023-02-11T16:13:09.830Z,68.22
2023-02-11T16:15:30.695Z,66.05
2023-02-11T16:17:32.136Z,66.82
2023-02-11T16:19:35.873Z,71.63
2023-02-11T16:21:45.234Z,65.47
2023-02-11T16:23:54.202Z,72.82
2023-02-11T16:26:01.905Z,67.43
2023-02-11T16:28:03.518Z,71.03
2023-02-11T16:30:05.955Z,69.20
2023-02-11T16:32:10.413Z,62.55
2023-02-11T16:34:29.861Z,70.78
2023-02-11T16:36:31.209Z,71.78
2023-02-11T16:38:32.603Z,72.88
2023-02-11T16:40:33.968Z,70.57
2023-02-11T16:42:35.387Z,63.63
2023-02-11T16:44:36.798Z,66.40
2023-02-11T16:46:38.622Z,64.75
2023-02-11T16:48:40.115Z,67.00
2023-02-11T16:50:46.507Z,65.00
2023-02-11T16:52:48.357Z,56.92
2023-02-11T16:54:50.058Z,65.20
2023-02-11T16:56:51.488Z,60.83
2023-02-11T16:58:52.913Z,63.88
2023-02-11T17:00:56.888Z,60.55
2023-02-11T17:02:58.350Z,64.38
2023-02-11T17:05:02.437Z,58.38
2023-02-11T17:07:03.845Z,63.72
2023-02-11T17:09:06.676Z,63.15
2023-02-11T17:11:08.071Z,62.60
2023-02-11T17:13:09.469Z,62.92
2023-02-11T17:15:10.932Z,60.58
2023-02-11T17:17:12.872Z,56.90
2023-02-11T17:19:17.084Z,59.80
2023-02-11T17:21:18.554Z,57.20
2023-02-11T17:23:19.952Z,63.45
2023-02-11T17:25:23.359Z,61.28
2023-02-11T17:27:25.085Z,62.72
2023-02-11T17:29:27.073Z,58.85
2023-02-11T17:31:28.500Z,57.40
2023-02-11T17:33:29.900Z,59.47
2023-02-11T17:35:31.288Z,53.55
2023-02-11T17:37:32.820Z,57.05
2023-02-11T17:39:38.711Z,58.45
2023-02-11T17:41:40.567Z,58.47
2023-02-11T17:43:42.606Z,55.67
2023-02-11T17:45:44.087Z,59.15
2023-02-11T17:47:46.041Z,59.05
2023-02-11T17:49:47.381Z,55.55
2023-02-11T17:51:48.783Z,59.67
2023-02-11T17:53:50.444Z,55.25
2023-02-11T17:55:52.081Z,54.17
2023-02-11T17:57:53.680Z,51.50
2023-02-11T17:59:55.025Z,61.25
2023-02-11T18:01:56.406Z,49.63
2023-02-11T18:03:57.874Z,51.90
2023-02-11T18:06:01.613Z,51.53
2023-02-11T18:08:05.413Z,56.30
2023-02-11T18:10:08.320Z,53.45
2023-02-11T18:12:10.651Z,55.05
2023-02-11T18:14:14.042Z,55.55
2023-02-11T18:16:15.816Z,49.65
2023-02-11T18:18:17.400Z,56.15
2023-02-11T18:20:19.781Z,51.63
2023-02-11T18:22:21.184Z,58.90
2023-02-11T18:24:22.652Z,58.42
2023-02-11T18:26:28.139Z,52.70
2023-02-11T18:28:29.663Z,58.22
2023-02-11T18:30:31.220Z,60.08
2023-02-11T18:32:32.675Z,63.08
2023-02-11T18:34:34.105Z,60.08
2023-02-11T18:36:36.376Z,58.95
2023-02-11T18:38:38.149Z,62.90
2023-02-11T18:40:40.652Z,63.08
2023-02-11T18:42:42.738Z,55.40
2023-02-11T18:44:44.272Z,60.60
2023-02-11T18:46:45.656Z,57.85
2023-02-11T18:48:47.073Z,71.85
2023-02-11T18:50:48.735Z,65.95
2023-02-11T18:52:50.115Z,54.33
2023-02-11T18:54:52.273Z,59.17
2023-02-11T18:56:53.696Z,63.03
2023-02-11T18:58:56.488Z,63.45
2023-02-11T19:00:57.955Z,64.45
2023-02-11T19:03:01.316Z,67.20
2023-02-11T19:05:06.311Z,64.45
2023-02-11T19:07:07.719Z,66.70
2023-02-11T19:09:11.204Z,62.28
2023-02-11T19:11:14.481Z,65.55
2023-02-11T19:13:15.900Z,64.97
2023-02-11T19:15:17.300Z,65.15
2023-02-11T19:17:18.726Z,63.35
2023-02-11T19:19:22.194Z,62.97
2023-02-11T19:21:23.579Z,64.43
2023-02-11T19:23:24.935Z,66.47
2023-02-11T19:25:26.803Z,67.68
2023-02-11T19:27:28.204Z,64.00
2023-02-11T19:29:33.263Z,66.90
2023-02-11T19:31:34.951Z,73.82
2023-02-11T19:33:36.875Z,69.47
2023-02-11T19:35:38.276Z,70.10
2023-02-11T19:37:39.814Z,65.75
2023-02-11T19:39:42.673Z,65.03
2023-02-11T19:41:44.335Z,69.05
2023-02-11T19:43:47.713Z,69.68
2023-02-11T19:45:49.203Z,71.35
2023-02-11T19:47:55.290Z,67.63
2023-02-11T19:49:56.703Z,65.40
2023-02-11T19:51:58.394Z,75.93
2023-02-11T19:54:00.396Z,76.53
2023-02-11T19:56:03.029Z,64.85
2023-02-11T19:58:04.472Z,70.43
2023-02-11T20:00:06.774Z,71.55
2023-02-11T20:02:10.230Z,80.60
2023-02-11T20:04:13.124Z,74.15
2023-02-11T20:06:17.576Z,74.75
2023-02-11T20:08:18.978Z,67.53
2023-02-11T20:10:20.323Z,74.00
2023-02-11T20:12:21.753Z,72.80
2023-02-11T20:14:23.390Z,69.65
2023-02-11T20:16:44.662Z,73.47
2023-02-11T20:18:49.122Z,73.18
2023-02-11T20:20:50.535Z,78.50
2023-02-11T20:22:52.420Z,66.32
2023-02-11T20:24:53.858Z,71.13
2023-02-11T20:26:55.863Z,75.63
2023-02-11T20:29:02.100Z,73.13
2023-02-11T20:31:04.904Z,76.90
2023-02-11T20:33:06.473Z,71.80
2023-02-11T20:35:08.585Z,72.88
2023-02-11T20:37:10.370Z,71.28
2023-02-11T20:39:16.941Z,76.72
2023-02-11T20:41:24.669Z,80.50
2023-02-11T20:43:26.042Z,72.95
2023-02-11T20:45:27.437Z,72.53
2023-02-11T20:47:28.808Z,82.03
2023-02-11T20:49:30.451Z,75.07
2023-02-11T20:51:34.236Z,80.72
2023-02-11T20:53:37.731Z,81.97
2023-02-11T20:55:39.714Z,72.85
2023-02-11T20:57:41.121Z,72.00
2023-02-11T20:59:42.609Z,70.05
2023-02-11T21:01:46.778Z,72.82
2023-02-11T21:03:58.880Z,68.22
2023-02-11T21:06:00.795Z,72.03
2023-02-11T21:08:02.216Z,75.93
2023-02-11T21:10:04.241Z,80.47
2023-02-11T21:12:05.986Z,76.90
2023-02-11T21:14:07.687Z,76.50
2023-02-11T21:16:13.365Z,81.85
2023-02-11T21:18:14.799Z,78.50
2023-02-11T21:20:16.315Z,75.38
2023-02-11T21:22:17.699Z,75.28
2023-02-11T21:24:19.144Z,77.78
2023-02-11T21:26:20.606Z,80.47
2023-02-11T21:28:26.372Z,74.43
2023-02-11T21:30:27.813Z,78.60
2023-02-11T21:32:29.424Z,81.28
2023-02-11T21:34:30.814Z,84.00
2023-02-11T21:36:32.349Z,74.15
2023-02-11T21:38:34.670Z,74.07
2023-02-11T21:40:36.024Z,74.45
2023-02-11T21:42:37.439Z,76.18
2023-02-11T21:44:38.899Z,78.78
2023-02-11T21:46:40.601Z,78.40
2023-02-11T21:48:42.488Z,77.55
2023-02-11T21:50:46.558Z,76.03
2023-02-11T21:52:48.001Z,76.95
2023-02-11T21:54:50.438Z,79.75
2023-02-11T21:56:51.852Z,73.55
2023-02-11T21:58:54.715Z,77.22
2023-02-11T22:00:56.185Z,77.45
2023-02-11T22:02:58.651Z,74.72
2023-02-11T22:05:00.875Z,76.78
2023-02-11T22:07:03.411Z,80.75
2023-02-11T22:09:08.298Z,73.28
2023-02-11T22:11:12.228Z,67.45
2023-02-11T22:13:13.635Z,72.78
2023-02-11T22:15:15.041Z,70.35
2023-02-11T22:17:16.515Z,72.78
2023-02-11T22:19:18.764Z,73.80
2023-02-11T22:21:22.703Z,65.25
2023-02-11T22:23:24.195Z,69.32
2023-02-11T22:25:25.596Z,73.82
2023-02-11T22:27:27.016Z,66.32
2023-02-11T22:29:28.441Z,63.03
2023-02-11T22:31:33.043Z,66.97
2023-02-11T22:33:34.532Z,71.28
2023-02-11T22:35:35.902Z,64.75
2023-02-11T22:37:37.393Z,71.80
2023-02-11T22:39:38.793Z,70.10
2023-02-11T22:41:41.562Z,69.65
2023-02-11T22:43:43.864Z,66.72
2023-02-11T22:45:45.258Z,68.05
2023-02-11T22:47:46.640Z,65.28
2023-02-11T22:49:48.135Z,64.32
2023-02-11T22:51:49.525Z,68.93
2023-02-11T22:54:02.139Z,69.00
2023-02-11T22:56:05.655Z,64.55
2023-02-11T22:58:07.187Z,64.57
2023-02-11T23:00:09.766Z,68.20
2023-02-11T23:02:11.284Z,65.90
2023-02-11T23:04:15.536Z,63.75
2023-02-11T23:06:17.380Z,67.05
2023-02-11T23:08:18.775Z,65.28
2023-02-11T23:10:20.326Z,64.57
2023-02-11T23:12:21.716Z,62.28
2023-02-11T23:14:23.375Z,62.72
2023-02-11T23:16:34.271Z,60.85
2023-02-11T23:18:38.148Z,64.75
2023-02-11T23:20:42.131Z,61.08
2023-02-11T23:22:43.512Z,63.63
2023-02-11T23:24:44.898Z,64.10
2023-02-11T23:26:46.319Z,70.03
2023-02-11T23:28:47.849Z,58.42
2023-02-11T23:30:49.273Z,60.72
2023-02-11T23:32:51.690Z,63.25
2023-02-11T23:34:53.091Z,61.25
2023-02-11T23:36:54.750Z,57.40
2023-02-11T23:38:56.342Z,55.17
2023-02-11T23:40:57.721Z,64.20
2023-02-11T23:42:59.132Z,59.97
2023-02-11T23:45:01.404Z,58.88
2023-02-11T23:47:02.797Z,65.55
2023-02-11T23:49:04.406Z,61.88
2023-02-11T23:51:06.600Z,60.03
2023-02-11T23:53:08.000Z,68.35
2023-02-11T23:55:09.792Z,53.92
2023-02-11T23:57:11.167Z,59.83
2023-02-11T23:59:13.004Z,59.30
